Time;durP1;ratioP1;P1;durP2;ratioP2;P2;SDS_P1;SDS_P2;PMS_P1;PMS_P2;Temp;Humidity;BMP_temperature;BMP_pressure;BME280_temperature;BME280_humidity;BME280_pressure;Samples;Min_cycle;Max_cycle;Signal;HPM_P1;HPM_P2
2022/03/23 00:00:05;;;;;;;10.70;9.33;;;;;;;8.29;39.43;153489.56;5060883;28;20453;-75
2022/03/23 00:02:47;;;;;;;11.20;8.73;;;;;;;8.29;39.39;153489.56;5073182;28;20438;-75
2022/03/23 00:05:25;;;;;;;12.43;8.80;;;;;;;8.29;40.39;153488.25;5065292;28;20856;-75
2022/03/23 00:08:01;;;;;;;9.70;8.43;;;;;;;8.24;40.17;153475.28;5046211;28;20538;-75
2022/03/23 00:10:37;;;;;;;11.60;10.40;;;;;;;8.13;40.62;153448.13;5040018;28;20474;-75
2022/03/23 00:13:13;;;;;;;13.40;10.07;;;;;;;8.17;41.80;153458.50;5040635;28;21120;-75
2022/03/23 00:15:49;;;;;;;13.37;9.87;;;;;;;8.26;39.72;153481.75;5050712;28;20458;-75
2022/03/23 00:18:24;;;;;;;11.80;10.20;;;;;;;8.33;40.12;153498.63;5042620;28;20454;-75
2022/03/23 00:21:00;;;;;;;14.57;10.07;;;;;;;8.54;39.34;153552.91;5054809;28;20433;-75
2022/03/23 00:23:35;;;;;;;13.20;10.60;;;;;;;8.45;39.56;153530.91;5054834;28;20448;-75
2022/03/23 00:26:14;;;;;;;14.07;10.97;;;;;;;8.32;39.94;153497.31;5072375;28;20479;-75
2022/03/23 00:28:49;;;;;;;13.40;9.33;;;;;;;8.30;39.95;153490.84;5058431;28;20545;-75
2022/03/23 00:31:25;;;;;;;13.30;10.37;;;;;;;8.24;40.67;153475.28;5055822;28;20485;-75
2022/03/23 00:34:00;;;;;;;14.73;10.90;;;;;;;8.25;40.43;153479.19;5043012;28;20477;-75
2022/03/23 00:36:36;;;;;;;12.80;10.80;;;;;;;8.18;40.08;153461.06;5056759;28;20460;-75
2022/03/23 00:39:11;;;;;;;15.53;10.90;;;;;;;8.18;40.75;153461.06;5059272;28;20434;-75
2022/03/23 00:41:52;;;;;;;12.03;10.40;;;;;;;8.05;41.58;153427.47;5055182;28;20438;-75
2022/03/23 00:44:28;;;;;;;14.33;11.87;;;;;;;7.93;42.45;153396.47;5042388;28;20528;-75
2022/03/23 00:47:04;;;;;;;14.87;12.33;;;;;;;7.87;43.34;153382.25;5046133;28;20470;-75
2022/03/23 00:49:39;;;;;;;15.70;12.30;;;;;;;7.81;44.76;153366.75;5040415;28;20956;-75
2022/03/23 00:52:15;;;;;;;16.50;13.00;;;;;;;7.81;45.46;153365.50;5056341;28;20474;-75
2022/03/23 00:54:51;;;;;;;16.07;12.70;;;;;;;7.76;45.90;153352.53;5037437;28;20450;-75
2022/03/23 00:57:27;;;;;;;16.73;13.07;;;;;;;7.69;45.50;153335.75;5040711;28;20445;-75
2022/03/23 01:00:06;;;;;;;13.63;12.23;;;;;;;7.63;45.82;153320.25;5057857;28;20437;-75
2022/03/23 01:02:41;;;;;;;15.23;12.40;;;;;;;7.55;45.72;153299.59;5043087;28;21023;-75
2022/03/23 01:05:17;;;;;;;15.07;12.30;;;;;;;7.48;45.64;153281.50;5058462;28;20449;-75
2022/03/23 01:07:53;;;;;;;15.70;11.53;;;;;;;7.43;45.38;153267.31;5055406;28;20450;-76
2022/03/23 01:10:29;;;;;;;17.03;13.77;;;;;;;7.38;46.41;153254.41;5056497;28;20495;-75
2022/03/23 01:13:06;;;;;;;16.80;13.60;;;;;;;7.31;46.46;153238.88;5029192;28;20475;-75
2022/03/23 01:15:42;;;;;;;17.40;13.17;;;;;;;7.27;47.53;153228.56;5057041;28;20443;-75
2022/03/23 01:18:18;;;;;;;17.90;13.40;;;;;;;7.26;48.18;153225.97;5042014;28;20462;-75
2022/03/23 01:20:54;;;;;;;19.50;13.70;;;;;;;7.26;48.32;153225.97;5051966;28;20785;-75
2022/03/23 01:23:30;;;;;;;19.50;13.50;;;;;;;7.27;47.92;153227.28;5052206;28;21063;-76
2022/03/23 01:26:06;;;;;;;20.10;14.23;;;;;;;7.27;48.21;153228.56;5041917;28;20442;-75
2022/03/23 01:28:44;;;;;;;16.13;12.90;;;;;;;7.23;48.27;153218.22;5036907;28;20456;-75
2022/03/23 01:31:20;;;;;;;17.00;14.17;;;;;;;7.21;48.97;153213.06;5049653;28;20502;-75
2022/03/23 01:33:59;;;;;;;17.00;14.20;;;;;;;7.18;48.45;153205.31;5035988;28;20783;-76
2022/03/23 01:36:35;;;;;;;19.40;14.43;;;;;;;7.21;48.82;153213.06;5058732;28;20470;-75
2022/03/23 01:39:11;;;;;;;16.83;13.53;;;;;;;7.23;49.18;153218.22;5054514;28;20865;-75
2022/03/23 01:41:46;;;;;;;21.50;15.70;;;;;;;7.23;49.58;153218.22;5054875;28;20819;-75
2022/03/23 01:44:25;;;;;;;23.83;15.37;;;;;;;7.20;49.31;153210.47;5046401;28;20441;-75
2022/03/23 01:47:03;;;;;;;17.47;13.80;;;;;;;7.19;49.69;153207.91;5043585;28;20553;-75
2022/03/23 01:49:42;;;;;;;18.50;13.73;;;;;;;7.17;49.74;153201.47;5045241;28;20442;-75
2022/03/23 01:52:20;;;;;;;16.37;13.13;;;;;;;7.22;50.20;153215.66;5039839;28;20482;-74
2022/03/23 01:54:55;;;;;;;16.90;13.40;;;;;;;7.18;48.95;153205.31;5060225;28;20448;-75
2022/03/23 01:57:31;;;;;;;16.50;13.07;;;;;;;7.20;49.25;153210.47;5045799;28;20490;-75
2022/03/23 02:00:09;;;;;;;20.73;13.70;;;;;;;7.13;49.40;153192.41;5059047;28;20514;-75
2022/03/23 02:02:54;;;;;;;18.00;14.53;;;;;;;7.06;49.61;153173.03;5060213;28;20814;-75
2022/03/23 02:05:29;;;;;;;18.93;13.93;;;;;;;7.05;50.28;153171.75;5058685;28;20446;-75
2022/03/23 02:08:05;;;;;;;16.37;13.20;;;;;;;7.08;49.83;153178.19;5057720;28;20442;-75
2022/03/23 02:10:42;;;;;;;18.50;14.23;;;;;;;7.05;50.01;153171.75;5041950;28;20456;-75
2022/03/23 02:13:20;;;;;;;15.83;13.67;;;;;;;7.00;49.39;153158.84;5043443;28;20451;-74
2022/03/23 02:15:58;;;;;;;19.30;14.13;;;;;;;6.91;50.08;153135.59;5040378;28;20459;-74
2022/03/23 02:18:37;;;;;;;18.50;13.30;;;;;;;6.84;49.52;153117.53;5052623;28;20454;-74
2022/03/23 02:21:14;;;;;;;21.00;13.47;;;;;;;6.76;49.63;153096.88;5056143;28;20467;-74
2022/03/23 02:23:51;;;;;;;23.30;14.77;;;;;;;6.65;50.53;153068.47;5043652;28;20762;-75
2022/03/23 02:26:26;;;;;;;19.33;13.30;;;;;;;6.61;50.12;153058.16;5058909;28;21299;-75
2022/03/23 02:29:02;;;;;;;16.10;12.77;;;;;;;6.59;50.64;153053.00;5056405;28;20451;-75
2022/03/23 02:31:38;;;;;;;21.63;12.90;;;;;;;6.59;50.74;153053.00;5058589;28;20470;-75
2022/03/23 02:34:13;;;;;;;24.03;14.63;;;;;;;6.58;50.38;153050.41;5056527;28;20451;-75
2022/03/23 02:36:49;;;;;;;17.53;13.30;;;;;;;6.54;50.64;153041.38;5056758;28;20441;-75
2022/03/23 02:39:26;;;;;;;17.90;13.90;;;;;;;6.51;50.78;153032.38;5055765;28;20439;-75
2022/03/23 02:42:02;;;;;;;22.50;12.63;;;;;;;6.48;50.99;153024.63;5069608;28;20459;-75
2022/03/23 02:44:38;;;;;;;18.10;13.20;;;;;;;6.46;50.63;153019.47;5058125;28;20430;-74
2022/03/23 02:47:14;;;;;;;19.23;14.47;;;;;;;6.48;50.99;153024.63;5039021;28;20447;-75
2022/03/23 02:49:49;;;;;;;16.77;13.60;;;;;;;6.48;51.26;153025.91;5057216;28;20859;-74
2022/03/23 02:52:27;;;;;;;15.37;12.70;;;;;;;6.51;50.79;153032.38;5050366;28;20541;-74
2022/03/23 03:03:58;;;;;;;17.23;13.30;;;;;;;6.10;52.93;152927.84;5045797;28;20470;-75
2022/03/23 03:06:33;;;;;;;20.00;13.57;;;;;;;6.01;52.36;152905.88;5057682;28;20456;-75
2022/03/23 03:09:09;;;;;;;18.37;12.60;;;;;;;5.97;52.48;152895.59;5058422;28;20447;-75
2022/03/23 03:11:47;;;;;;;16.90;13.03;;;;;;;5.94;53.17;152886.56;5055979;28;20474;-74
2022/03/23 03:14:22;;;;;;;15.70;11.87;;;;;;;5.84;52.93;152862.00;5058770;28;20451;-75
2022/03/23 03:16:58;;;;;;;18.00;12.47;;;;;;;5.80;52.94;152851.66;5055614;28;20449;-75
2022/03/23 03:19:33;;;;;;;15.40;12.60;;;;;;;5.77;53.38;152842.69;5056079;28;21053;-74
2022/03/23 03:22:09;;;;;;;18.83;13.57;;;;;;;5.75;53.95;152837.47;5060092;28;20474;-75
2022/03/23 03:24:45;;;;;;;15.67;12.50;;;;;;;5.73;53.66;152833.63;5055064;28;20819;-75
2022/03/23 03:27:23;;;;;;;16.30;11.13;;;;;;;5.68;53.82;152819.44;5065019;28;20451;-75
2022/03/23 03:29:58;;;;;;;18.73;12.83;;;;;;;5.64;54.51;152810.41;5052747;28;20534;-75
2022/03/23 03:32:34;;;;;;;18.80;13.77;;;;;;;5.60;54.11;152800.09;5053708;28;20471;-75
2022/03/23 03:35:10;;;;;;;16.37;13.00;;;;;;;5.52;54.90;152779.47;5058709;28;20462;-74
2022/03/23 03:37:46;;;;;;;19.67;14.40;;;;;;;5.49;55.06;152773.03;5029391;28;20450;-74
2022/03/23 03:40:22;;;;;;;17.80;12.00;;;;;;;5.46;55.17;152764.00;5056944;28;20879;-75
2022/03/23 03:42:59;;;;;;;18.50;14.00;;;;;;;5.45;55.73;152761.44;5061126;28;20450;-75
2022/03/23 03:45:34;;;;;;;17.30;13.93;;;;;;;5.43;55.33;152757.53;5060316;28;20449;-75
2022/03/23 03:48:10;;;;;;;21.63;12.87;;;;;;;5.46;54.95;152764.00;5052348;28;20458;-74
2022/03/23 03:50:46;;;;;;;16.57;13.10;;;;;;;5.44;55.80;152758.84;5056184;28;20478;-75
2022/03/23 03:53:21;;;;;;;16.27;12.77;;;;;;;5.42;56.12;152753.69;5060249;28;20453;-75
2022/03/23 03:55:57;;;;;;;18.27;13.40;;;;;;;5.44;55.78;152758.84;5040059;28;20462;-74
2022/03/23 03:58:34;;;;;;;18.03;13.93;;;;;;;5.44;56.45;152758.84;5075417;28;20539;-76
2022/03/23 04:01:14;;;;;;;19.20;14.70;;;;;;;5.40;56.46;152748.56;5057206;28;20461;-75
2022/03/23 04:03:49;;;;;;;19.93;14.77;;;;;;;5.37;56.91;152740.81;5034762;28;20450;-75
2022/03/23 04:06:25;;;;;;;18.67;13.70;;;;;;;5.31;57.15;152725.31;5053260;28;20482;-76
2022/03/23 04:09:01;;;;;;;19.07;14.07;;;;;;;5.23;57.45;152704.69;5060466;28;20431;-76
2022/03/23 04:11:36;;;;;;;20.63;15.40;;;;;;;5.20;57.26;152698.25;5055350;28;20844;-75
2022/03/23 04:14:13;;;;;;;18.80;13.63;;;;;;;5.16;58.50;152686.66;5054600;28;20868;-76
2022/03/23 04:16:49;;;;;;;21.00;14.27;;;;;;;5.14;57.88;152681.47;5053632;28;21032;-76
2022/03/23 04:19:24;;;;;;;18.00;14.33;;;;;;;5.08;57.93;152667.34;5042033;28;20684;-75
2022/03/23 04:22:00;;;;;;;18.90;14.17;;;;;;;5.05;57.99;152658.31;5058771;28;20442;-76
2022/03/23 04:24:36;;;;;;;17.60;14.40;;;;;;;4.98;58.02;152641.53;5059460;28;20473;-76
2022/03/23 04:27:12;;;;;;;16.13;13.10;;;;;;;4.93;58.95;152629.94;5050665;28;20451;-76
2022/03/23 04:29:49;;;;;;;17.10;13.47;;;;;;;4.89;58.90;152619.66;5055204;28;20802;-76
2022/03/23 04:32:24;;;;;;;19.17;13.67;;;;;;;4.89;58.90;152619.66;5040030;28;20478;-75
2022/03/23 04:35:00;;;;;;;18.40;15.07;;;;;;;4.83;59.29;152604.16;5036555;28;20551;-76
2022/03/23 04:37:36;;;;;;;18.63;14.73;;;;;;;4.74;59.15;152580.97;5053206;28;20446;-76
2022/03/23 04:40:14;;;;;;;20.50;13.23;;;;;;;4.71;60.36;152573.22;5054993;28;20924;-75
2022/03/23 04:42:49;;;;;;;21.57;13.63;;;;;;;4.63;60.50;152552.59;5053846;28;20444;-75
2022/03/23 04:45:26;;;;;;;18.40;13.37;;;;;;;4.61;60.38;152547.47;5048363;28;20565;-75
2022/03/23 04:48:05;;;;;;;16.60;13.17;;;;;;;4.61;60.65;152547.47;5040235;28;20463;-76
2022/03/23 04:50:41;;;;;;;19.67;14.07;;;;;;;4.61;60.97;152546.16;5051942;28;20475;-75
2022/03/23 04:53:17;;;;;;;19.60;15.00;;;;;;;4.63;61.04;152552.59;5044391;28;20815;-74
2022/03/23 04:55:53;;;;;;;16.70;12.80;;;;;;;4.64;61.12;152555.19;5057786;28;20849;-75
2022/03/23 04:58:29;;;;;;;18.90;15.60;;;;;;;4.66;61.46;152560.34;5043807;28;21098;-74
2022/03/23 05:01:06;;;;;;;20.50;14.87;;;;;;;4.66;61.13;152560.34;5051790;28;20449;-74
2022/03/23 05:03:42;;;;;;;22.70;14.90;;;;;;;4.65;60.89;152557.78;5037865;28;22049;-74
2022/03/23 05:06:17;;;;;;;18.00;14.77;;;;;;;4.67;61.58;152562.94;5051607;28;20803;-74
2022/03/23 05:08:53;;;;;;;20.50;14.33;;;;;;;4.65;61.66;152557.78;5056425;28;20815;-74
2022/03/23 05:11:29;;;;;;;18.20;15.60;;;;;;;4.58;62.43;152539.72;5055444;28;20454;-75
2022/03/23 05:14:04;;;;;;;18.47;15.00;;;;;;;4.53;62.75;152526.84;5067306;28;20441;-74
2022/03/23 05:16:41;;;;;;;20.40;15.33;;;;;;;4.52;63.37;152523.00;5056145;28;20441;-75
2022/03/23 05:19:17;;;;;;;20.53;15.33;;;;;;;4.50;62.93;152519.09;5038550;28;20457;-75
2022/03/23 05:21:53;;;;;;;21.53;15.57;;;;;;;4.49;63.19;152516.56;5048287;28;20441;-75
2022/03/23 05:24:28;;;;;;;19.80;16.27;;;;;;;4.46;64.35;152508.81;5043675;28;20453;-75
2022/03/23 05:27:04;;;;;;;19.90;14.90;;;;;;;4.47;63.45;152511.41;5056125;28;20537;-75
2022/03/23 05:29:40;;;;;;;19.33;15.73;;;;;;;4.52;63.52;152523.00;5059470;28;20445;-75
2022/03/23 05:32:18;;;;;;;19.10;14.67;;;;;;;4.57;62.89;152537.19;5051124;28;20466;-75
2022/03/23 05:34:53;;;;;;;17.47;14.23;;;;;;;4.57;63.32;152537.19;5060219;28;20801;-75
2022/03/23 05:37:29;;;;;;;21.37;15.63;;;;;;;4.59;63.01;152541.03;5057401;28;20509;-75
2022/03/23 05:40:06;;;;;;;18.97;15.07;;;;;;;4.61;63.64;152547.47;5043584;28;20472;-75
2022/03/23 05:42:42;;;;;;;21.60;15.63;;;;;;;4.65;63.69;152556.50;5047677;28;20494;-74
2022/03/23 05:45:17;;;;;;;23.00;15.23;;;;;;;4.69;63.76;152566.78;5053602;28;20451;-74
2022/03/23 05:47:56;;;;;;;20.40;15.63;;;;;;;4.69;63.28;152568.06;5057867;28;20445;-74
2022/03/23 05:50:33;;;;;;;21.97;15.17;;;;;;;4.72;63.38;152575.81;5047889;28;20475;-74
2022/03/23 05:53:09;;;;;;;22.90;14.43;;;;;;;4.74;63.35;152580.97;5051760;28;20469;-76
2022/03/23 05:55:44;;;;;;;26.13;16.77;;;;;;;4.72;64.01;152575.81;5062295;28;20538;-75
2022/03/23 05:58:20;;;;;;;20.83;16.10;;;;;;;4.70;64.01;152570.66;5075614;28;20453;-75
2022/03/23 06:00:56;;;;;;;22.97;16.50;;;;;;;4.68;64.28;152565.53;5057924;28;20455;-75
2022/03/23 06:03:34;;;;;;;21.00;15.97;;;;;;;4.69;64.71;152566.78;5058245;28;20435;-74
2022/03/23 06:06:10;;;;;;;20.97;15.30;;;;;;;4.73;64.54;152578.41;5053689;28;20907;-74
2022/03/23 06:08:46;;;;;;;19.47;15.90;;;;;;;4.73;64.49;152578.41;5034633;28;20450;-75
2022/03/23 06:11:21;;;;;;;22.20;15.63;;;;;;;4.80;64.81;152596.44;5044060;28;20446;-75
2022/03/23 06:13:57;;;;;;;23.37;15.70;;;;;;;4.85;64.68;152609.31;5062994;28;20554;-75
2022/03/23 06:16:33;;;;;;;24.77;16.37;;;;;;;4.91;64.78;152624.78;5052196;28;20541;-75
2022/03/23 06:19:10;;;;;;;22.97;16.67;;;;;;;4.97;64.84;152637.69;5058934;28;20488;-75
2022/03/23 06:21:45;;;;;;;22.83;15.40;;;;;;;5.06;64.68;152662.16;5054044;28;20554;-75
2022/03/23 06:24:21;;;;;;;21.13;15.73;;;;;;;5.18;64.61;152691.81;5047482;28;20453;-75
2022/03/23 06:26:57;;;;;;;22.87;15.43;;;;;;;5.39;64.11;152745.94;5039466;28;20806;-75
2022/03/23 06:29:32;;;;;;;23.23;15.77;;;;;;;5.79;63.07;152849.13;5073543;28;20555;-74
2022/03/23 06:32:09;;;;;;;23.03;16.17;;;;;;;6.16;62.28;152942.03;5058966;28;20508;-75
2022/03/23 06:34:46;;;;;;;20.20;15.60;;;;;;;6.44;61.61;153014.28;5066837;28;20547;-75
2022/03/23 06:37:22;;;;;;;20.63;16.10;;;;;;;6.73;60.63;153089.13;5057422;28;20478;-75
2022/03/23 06:39:58;;;;;;;23.40;15.70;;;;;;;6.99;59.49;153156.25;5039488;28;20439;-74
2022/03/23 06:42:34;;;;;;;22.03;15.73;;;;;;;7.26;59.16;153225.97;5042257;28;20929;-75
2022/03/23 06:45:10;;;;;;;20.87;15.43;;;;;;;7.53;58.47;153294.44;5051126;28;20545;-74
2022/03/23 06:47:45;;;;;;;21.00;16.60;;;;;;;7.80;57.60;153364.19;5039012;28;20538;-75
2022/03/23 06:50:22;;;;;;;30.00;17.53;;;;;;;7.95;56.69;153401.63;5042435;28;20488;-75
2022/03/23 06:52:58;;;;;;;21.50;16.00;;;;;;;8.06;56.58;153430.06;5057486;28;20457;-74
2022/03/23 06:55:34;;;;;;;23.57;17.20;;;;;;;8.08;56.49;153433.94;5055599;28;20808;-76
2022/03/23 06:58:09;;;;;;;25.87;17.00;;;;;;;8.24;56.48;153476.59;5055807;28;20442;-76
2022/03/23 07:00:45;;;;;;;22.37;16.50;;;;;;;8.32;55.95;153497.31;5057024;28;20451;-76
2022/03/23 07:03:21;;;;;;;21.77;17.60;;;;;;;8.53;55.81;153551.59;5064277;28;21149;-77
2022/03/23 07:05:58;;;;;;;22.80;17.57;;;;;;;8.66;55.64;153582.66;5049144;28;20446;-77
2022/03/23 07:11:26;;;;;;;23.40;18.27;;;;;;;8.95;55.21;153657.59;5061260;28;20960;-75
2022/03/23 07:14:02;;;;;;;24.23;18.43;;;;;;;9.21;54.17;153723.59;5049817;28;20488;-75
2022/03/23 07:16:38;;;;;;;22.03;17.47;;;;;;;9.31;53.60;153750.75;5070824;28;20479;-75
2022/03/23 07:19:13;;;;;;;21.80;15.63;;;;;;;9.35;53.68;153761.06;5055915;28;20792;-76
2022/03/23 07:21:51;;;;;;;25.83;18.23;;;;;;;9.42;53.87;153779.22;5057713;28;20458;-76
2022/03/23 07:24:27;;;;;;;25.03;19.10;;;;;;;9.61;53.59;153828.34;5053811;28;20443;-76
2022/03/23 07:27:03;;;;;;;23.40;19.00;;;;;;;9.65;53.29;153838.72;5055151;28;20453;-76
2022/03/23 07:29:38;;;;;;;22.27;18.27;;;;;;;9.84;52.56;153885.28;5055649;28;20441;-76
2022/03/23 07:32:14;;;;;;;22.30;16.53;;;;;;;10.01;52.39;153930.56;5056645;28;20442;-76
2022/03/23 07:34:49;;;;;;;21.97;17.27;;;;;;;10.10;52.02;153953.88;5042467;28;20540;-76
2022/03/23 07:37:26;;;;;;;21.80;18.73;;;;;;;10.08;51.71;153947.41;5053808;28;20450;-76
2022/03/23 07:40:03;;;;;;;21.60;17.20;;;;;;;10.47;51.27;154048.41;5052830;28;20454;-76
2022/03/23 07:42:38;;;;;;;23.00;19.10;;;;;;;10.83;50.19;154141.63;5033113;28;20444;-76
2022/03/23 07:45:14;;;;;;;27.40;19.80;;;;;;;10.83;50.02;154140.31;5043463;28;20459;-76
2022/03/23 07:47:50;;;;;;;24.23;18.30;;;;;;;11.10;49.16;154208.97;5049755;28;20454;-76
2022/03/23 07:50:25;;;;;;;25.17;18.40;;;;;;;11.34;48.98;154272.47;5052950;28;20477;-77
2022/03/23 07:53:02;;;;;;;22.27;17.50;;;;;;;11.54;48.19;154323.03;5034636;28;20566;-76
2022/03/23 07:55:38;;;;;;;21.93;18.20;;;;;;;11.55;48.16;154325.59;5044416;28;20450;-77
2022/03/23 07:58:13;;;;;;;24.17;18.10;;;;;;;11.74;47.80;154374.88;5036061;28;20778;-76
2022/03/23 08:00:49;;;;;;;28.10;19.87;;;;;;;12.08;46.96;154463.03;5052983;28;20434;-77
2022/03/23 08:03:24;;;;;;;27.17;18.47;;;;;;;12.23;46.53;154501.91;5027497;28;20837;-77
2022/03/23 08:06:00;;;;;;;26.03;19.20;;;;;;;12.49;45.83;154566.75;5053235;28;20449;-77
2022/03/23 08:08:37;;;;;;;21.70;18.00;;;;;;;12.73;45.46;154629.00;5056836;28;20435;-77
2022/03/23 08:11:16;;;;;;;22.27;18.47;;;;;;;12.89;45.84;154670.53;5039334;28;20455;-77
2022/03/23 08:13:51;;;;;;;23.10;17.97;;;;;;;13.03;45.35;154706.81;5033672;28;20558;-77
2022/03/23 08:16:27;;;;;;;20.90;18.07;;;;;;;13.17;45.32;154741.91;5047844;28;20453;-77
2022/03/23 08:19:02;;;;;;;23.10;20.17;;;;;;;12.99;45.66;154696.47;5061868;28;20446;-77
2022/03/23 08:21:38;;;;;;;26.60;18.40;;;;;;;13.21;45.96;154752.31;5039597;28;20701;-77
2022/03/23 08:24:15;;;;;;;24.30;19.60;;;;;;;13.35;45.47;154788.59;5058038;28;20794;-77
2022/03/23 08:26:50;;;;;;;22.60;19.03;;;;;;;13.72;45.20;154884.63;5055057;28;20933;-77
2022/03/23 08:29:26;;;;;;;22.77;18.80;;;;;;;13.96;45.02;154946.94;5047786;28;20878;-77
2022/03/23 08:32:02;;;;;;;30.00;20.43;;;;;;;13.91;45.05;154932.66;5075025;28;20466;-77
2022/03/23 08:34:37;;;;;;;25.03;20.60;;;;;;;13.92;45.29;154935.28;5040994;28;20496;-77
2022/03/23 08:37:13;;;;;;;27.93;19.70;;;;;;;14.09;44.40;154979.41;5020531;28;20538;-77
2022/03/23 08:39:50;;;;;;;25.63;20.03;;;;;;;14.27;43.70;155026.13;5057052;28;20446;-77
2022/03/23 08:42:26;;;;;;;23.67;19.00;;;;;;;14.27;42.63;155024.88;5048091;28;20849;-77
2022/03/23 08:45:02;;;;;;;21.20;17.87;;;;;;;14.55;40.29;155098.94;5053044;28;20843;-77
2022/03/23 08:47:38;;;;;;;22.67;18.37;;;;;;;14.83;41.32;155170.34;5051047;28;20443;-77
2022/03/23 08:50:14;;;;;;;21.47;19.07;;;;;;;14.90;42.70;155188.56;5052239;28;20493;-77
2022/03/23 08:52:49;;;;;;;24.17;19.87;;;;;;;15.07;41.43;155231.41;5046352;28;20479;-77
2022/03/23 08:55:26;;;;;;;21.73;19.33;;;;;;;15.40;40.63;155315.91;5030371;28;20459;-77
2022/03/23 08:58:02;;;;;;;22.60;18.07;;;;;;;15.16;39.46;155256.13;5064885;28;20457;-77
2022/03/23 09:00:40;;;;;;;26.93;18.80;;;;;;;14.85;40.39;155174.28;5048620;28;20991;-77
2022/03/23 09:03:16;;;;;;;22.50;19.10;;;;;;;14.73;40.66;155143.09;5064863;28;20936;-77
2022/03/23 09:05:52;;;;;;;24.73;20.00;;;;;;;14.59;40.94;155109.31;5051632;28;20838;-77
2022/03/23 09:08:28;;;;;;;23.63;19.37;;;;;;;14.99;40.63;155211.94;5049480;28;20441;-77
2022/03/23 09:11:05;;;;;;;19.93;17.87;;;;;;;15.04;39.42;155224.94;5034568;28;20454;-76
2022/03/23 09:13:42;;;;;;;19.93;17.90;;;;;;;14.71;40.47;155137.91;5050800;28;20469;-76
2022/03/23 09:16:18;;;;;;;22.20;18.43;;;;;;;14.82;39.31;155167.78;5057143;28;20816;-77
2022/03/23 09:18:55;;;;;;;20.60;16.70;;;;;;;14.80;38.21;155161.31;5043483;28;20447;-76
2022/03/23 09:21:30;;;;;;;19.10;16.87;;;;;;;14.75;37.29;155148.25;5041237;28;20461;-77
2022/03/23 09:24:06;;;;;;;18.03;15.57;;;;;;;14.57;37.65;155104.13;5047700;28;20533;-76
2022/03/23 09:26:43;;;;;;;18.40;16.50;;;;;;;15.10;34.20;155239.22;5053884;28;20466;-77
2022/03/23 09:29:19;;;;;;;17.60;15.77;;;;;;;14.88;34.57;155182.09;5044116;28;20450;-77
2022/03/23 09:31:55;;;;;;;17.37;15.37;;;;;;;14.78;35.46;155156.06;5047053;28;20992;-76
2022/03/23 09:34:31;;;;;;;19.00;17.10;;;;;;;14.74;37.30;155147.00;5046802;28;20454;-76
2022/03/23 09:40:00;;;;;;;17.67;15.77;;;;;;;14.73;36.38;155144.38;5053161;28;20459;-76
2022/03/23 09:42:39;;;;;;;17.50;15.50;;;;;;;14.76;36.64;155150.88;5043735;28;20442;-76
2022/03/23 09:45:28;;;;;;;19.80;15.13;;;;;;;14.47;36.10;155076.84;5046024;28;20551;-76
2022/03/23 09:48:06;;;;;;;15.70;14.10;;;;;;;14.11;34.84;154984.59;5051879;28;20446;-77
2022/03/23 09:50:44;;;;;;;20.43;13.40;;;;;;;13.85;32.67;154917.06;5032709;28;20535;-76
2022/03/23 09:53:22;;;;;;;14.80;11.83;;;;;;;13.71;31.46;154882.06;5055416;28;20832;-76
2022/03/23 09:55:57;;;;;;;17.80;13.53;;;;;;;13.55;34.04;154839.22;5066415;28;20465;-76
2022/03/23 09:58:34;;;;;;;14.57;12.80;;;;;;;13.47;32.23;154818.47;5050233;28;20450;-76
2022/03/23 10:01:42;;;;;;;15.27;13.30;;;;;;;13.52;34.38;154832.75;5064767;28;20468;-76
2022/03/23 10:05:07;;;;;;;16.33;14.60;;;;;;;13.46;34.80;154817.16;5053468;28;20856;-76
2022/03/23 10:07:49;;;;;;;14.47;12.97;;;;;;;13.56;34.67;154843.09;5066403;28;20864;-76
2022/03/23 10:11:01;;;;;;;19.00;14.30;;;;;;;14.02;33.68;154961.25;5052744;28;20538;-76
2022/03/23 10:14:21;;;;;;;15.73;12.87;;;;;;;13.86;34.30;154919.69;5038929;28;20490;-76
2022/03/23 10:17:36;;;;;;;14.60;13.10;;;;;;;14.31;33.24;155036.59;5028678;28;20452;-76
2022/03/23 10:20:12;;;;;;;16.23;12.90;;;;;;;14.23;33.52;155015.78;5053112;28;20944;-76
2022/03/23 10:22:49;;;;;;;15.57;13.97;;;;;;;14.24;33.25;155018.38;5056610;28;20890;-76
2022/03/23 10:25:27;;;;;;;16.90;14.53;;;;;;;14.47;33.61;155076.84;5036385;28;20458;-77
2022/03/23 10:28:13;;;;;;;17.27;14.43;;;;;;;14.23;33.19;155015.78;5041206;28;20486;-76
2022/03/23 10:30:50;;;;;;;18.40;13.77;;;;;;;14.31;33.35;155035.25;5051849;28;20466;-76
2022/03/23 10:33:26;;;;;;;18.87;15.63;;;;;;;14.33;34.25;155040.47;5052354;28;20466;-75
2022/03/23 10:36:02;;;;;;;16.93;15.10;;;;;;;14.11;34.28;154984.59;5051783;28;20447;-76
2022/03/23 10:38:39;;;;;;;16.63;14.83;;;;;;;14.36;33.97;155049.59;5072164;28;20451;-76
2022/03/23 10:41:25;;;;;;;18.60;14.40;;;;;;;14.44;33.69;155070.38;5054631;28;20946;-76
2022/03/23 10:44:00;;;;;;;16.47;14.63;;;;;;;14.55;34.18;155097.63;5054184;28;20976;-76
2022/03/23 10:46:42;;;;;;;18.87;15.50;;;;;;;14.59;34.55;155109.31;5046525;28;20822;-75
2022/03/23 10:49:18;;;;;;;15.73;14.10;;;;;;;14.83;33.17;155169.06;5050274;28;20439;-76
2022/03/23 10:51:56;;;;;;;15.53;13.63;;;;;;;14.61;31.93;155113.25;5032550;28;20506;-76
2022/03/23 10:54:31;;;;;;;16.60;13.20;;;;;;;14.38;31.90;155053.47;5051337;28;20461;-76
2022/03/23 10:57:07;;;;;;;19.63;15.60;;;;;;;14.19;32.22;155005.34;5040502;28;20458;-76
2022/03/23 10:59:46;;;;;;;24.60;15.93;;;;;;;14.17;34.73;155000.19;5049192;28;20431;-76
2022/03/23 11:02:23;;;;;;;15.30;12.53;;;;;;;14.39;31.64;155057.38;5048258;28;21295;-75
2022/03/23 11:04:59;;;;;;;14.27;12.77;;;;;;;14.24;31.75;155017.09;5059899;28;20430;-75
2022/03/23 11:07:38;;;;;;;18.10;14.00;;;;;;;14.26;32.87;155022.25;5051311;28;20451;-75
2022/03/23 11:16:04;;;;;;;14.53;12.90;;;;;;;14.14;29.89;154992.38;5037392;28;20451;-75
2022/03/23 11:18:42;;;;;;;15.30;13.13;;;;;;;14.08;31.46;154976.84;5062487;28;20509;-76
2022/03/23 11:21:17;;;;;;;16.20;12.80;;;;;;;14.31;31.53;155036.59;5054161;28;20557;-76
2022/03/23 11:23:53;;;;;;;21.73;14.77;;;;;;;14.45;33.00;155072.97;5055200;28;20766;-75
2022/03/23 11:26:31;;;;;;;15.70;13.10;;;;;;;14.57;31.54;155104.13;5049926;28;20450;-75
2022/03/23 11:29:06;;;;;;;15.17;13.37;;;;;;;14.85;31.83;155174.28;5052559;28;20441;-75
2022/03/23 11:31:43;;;;;;;16.13;13.53;;;;;;;14.72;31.11;155140.50;5059883;28;20481;-76
2022/03/23 11:34:22;;;;;;;13.47;11.90;;;;;;;14.54;29.00;155096.31;5053136;28;20454;-76
2022/03/23 11:36:58;;;;;;;16.47;14.50;;;;;;;14.59;31.57;155109.31;5056109;28;20451;-75
2022/03/23 11:39:35;;;;;;;15.30;13.40;;;;;;;14.54;30.81;155096.31;5053582;28;20443;-76
2022/03/23 11:42:14;;;;;;;14.40;11.87;;;;;;;14.53;31.20;155092.47;5051970;28;20785;-76
2022/03/23 11:44:49;;;;;;;22.70;13.13;;;;;;;14.78;31.40;155157.38;5057896;28;20446;-75
2022/03/23 11:47:34;;;;;;;15.80;12.23;;;;;;;14.82;31.09;155166.47;5057860;28;20528;-76
2022/03/23 11:50:23;;;;;;;15.23;10.67;;;;;;;15.10;28.69;155239.22;5069380;28;20543;-76
2022/03/23 11:53:03;;;;;;;13.97;11.57;;;;;;;15.22;27.64;155270.44;5052298;28;20805;-75
2022/03/23 11:55:41;;;;;;;11.87;10.10;;;;;;;15.01;27.28;155215.88;5054723;28;20475;-76
2022/03/23 11:58:17;;;;;;;13.20;11.40;;;;;;;14.88;28.07;155182.09;5046510;28;20458;-76
2022/03/23 12:00:55;;;;;;;16.27;11.67;;;;;;;15.12;27.73;155244.41;5054609;28;20458;-75
2022/03/23 12:03:56;;;;;;;14.77;11.73;;;;;;;15.02;29.12;155218.44;5034402;28;20479;-75
2022/03/23 12:06:41;;;;;;;15.10;12.37;;;;;;;14.91;29.04;155189.84;5037642;28;20458;-75
2022/03/23 12:09:33;;;;;;;13.03;11.50;;;;;;;15.04;28.80;155223.63;5070465;28;20537;-76
2022/03/23 12:12:12;;;;;;;13.23;11.83;;;;;;;14.96;28.61;155202.81;5053782;28;20792;-76
2022/03/23 12:14:48;;;;;;;13.80;12.20;;;;;;;15.07;28.20;155232.72;5050151;28;20470;-76
2022/03/23 12:17:31;;;;;;;14.90;12.50;;;;;;;15.05;28.61;155226.22;5051291;28;20455;-75
2022/03/23 12:20:12;;;;;;;16.60;13.20;;;;;;;15.09;28.85;155236.66;5037205;28;20462;-76